createdAt,value
2017-11-08T00:00:40.712Z,91.10
2017-11-08T00:03:06.988Z,91.10
2017-11-08T00:05:33.396Z,91.20
2017-11-08T00:08:00.743Z,91.10
2017-11-08T00:10:27.068Z,91.20
2017-11-08T00:12:53.400Z,91.30
2017-11-08T00:15:19.753Z,91.10
2017-11-08T00:17:48.803Z,91.20
2017-11-08T00:20:15.143Z,91.20
2017-11-08T00:22:41.921Z,91.30
2017-11-08T00:25:08.295Z,91.30
2017-11-08T00:27:34.579Z,91.20
2017-11-08T00:30:00.959Z,91.20
2017-11-08T00:32:27.379Z,91.20
2017-11-08T00:34:53.726Z,91.30
2017-11-08T00:37:20.108Z,91.40
2017-11-08T00:39:47.987Z,91.30
2017-11-08T00:42:14.306Z,91.30
2017-11-08T00:44:40.598Z,91.40
2017-11-08T00:47:06.956Z,91.20
2017-11-08T00:49:34.282Z,91.30
2017-11-08T00:52:00.599Z,91.30
2017-11-08T00:54:26.904Z,91.40
2017-11-08T00:56:56.239Z,91.30
2017-11-08T00:59:23.315Z,91.30
2017-11-08T01:01:49.724Z,91.20
2017-11-08T01:04:16.279Z,91.40
2017-11-08T01:06:42.931Z,91.30
2017-11-08T01:09:09.294Z,91.20
2017-11-08T01:11:35.808Z,91.20
2017-11-08T01:14:02.161Z,91.20
2017-11-08T01:16:29.427Z,91.20
2017-11-08T01:18:55.746Z,91.50
2017-11-08T01:21:22.196Z,91.10
2017-11-08T01:23:48.475Z,91.20
2017-11-08T01:26:14.824Z,91.20
2017-11-08T01:28:41.333Z,91.30
2017-11-08T01:31:08.484Z,91.30
2017-11-08T01:33:34.790Z,91.30
2017-11-08T01:36:01.161Z,91.30
2017-11-08T01:38:27.699Z,91.40
2017-11-08T01:40:54.171Z,91.40
2017-11-08T01:43:20.553Z,91.60
2017-11-08T01:45:47.037Z,91.60
2017-11-08T01:48:15.339Z,91.80
2017-11-08T01:50:42.951Z,91.90
2017-11-08T01:53:09.258Z,91.80
2017-11-08T01:55:37.416Z,92.00
2017-11-08T01:58:03.810Z,92.00
2017-11-08T02:00:30.183Z,92.00
2017-11-08T02:02:57.267Z,92.20
2017-11-08T02:05:23.669Z,92.20
2017-11-08T02:07:50.048Z,92.20
2017-11-08T02:10:16.435Z,92.30
2017-11-08T02:12:42.776Z,92.30
2017-11-08T02:15:09.191Z,92.30
2017-11-08T02:17:41.762Z,92.30
2017-11-08T02:20:08.113Z,92.40
2017-11-08T02:22:34.565Z,92.40
2017-11-08T02:25:00.874Z,92.50
2017-11-08T02:27:33.362Z,92.50
2017-11-08T02:29:59.662Z,92.60
2017-11-08T02:32:26.894Z,93.00
2017-11-08T02:34:53.233Z,92.70
2017-11-08T02:37:19.587Z,92.60
2017-11-08T02:39:45.996Z,92.70
2017-11-08T02:42:12.334Z,92.80
2017-11-08T02:44:39.388Z,92.80
2017-11-08T02:47:05.756Z,93.00
2017-11-08T02:49:32.838Z,92.80
2017-11-08T02:51:59.204Z,92.80
2017-11-08T02:54:25.491Z,92.80
2017-11-08T02:56:51.825Z,92.80
2017-11-08T02:59:18.171Z,92.80
2017-11-08T03:01:44.520Z,92.80
2017-11-08T03:04:10.856Z,92.90
2017-11-08T03:06:37.303Z,92.90
2017-11-08T03:09:03.654Z,92.90
2017-11-08T03:11:30.024Z,93.00
2017-11-08T03:13:56.375Z,92.90
2017-11-08T03:16:22.756Z,93.00
2017-11-08T03:18:49.134Z,93.00
2017-11-08T03:21:15.428Z,92.90
2017-11-08T03:23:42.441Z,93.00
2017-11-08T03:26:08.757Z,93.00
2017-11-08T03:28:35.089Z,93.00
2017-11-08T03:31:01.396Z,93.10
2017-11-08T03:33:27.768Z,93.10
2017-11-08T03:35:54.182Z,93.30
2017-11-08T03:38:20.539Z,93.00
2017-11-08T03:40:46.901Z,93.10
2017-11-08T03:43:13.253Z,93.10
2017-11-08T03:45:39.557Z,93.10
2017-11-08T03:48:05.844Z,93.10
2017-11-08T03:50:32.222Z,93.10
2017-11-08T03:52:59.318Z,92.90
2017-11-08T03:55:25.611Z,92.90
2017-11-08T03:57:51.935Z,93.00
2017-11-08T04:00:18.243Z,93.00
2017-11-08T04:02:44.534Z,93.00
2017-11-08T04:05:10.841Z,93.10
2017-11-08T04:07:37.227Z,93.00
2017-11-08T04:10:03.621Z,93.00
2017-11-08T04:12:30.023Z,93.00
2017-11-08T04:14:56.334Z,92.90
2017-11-08T04:17:22.694Z,93.00
2017-11-08T04:19:49.035Z,92.90
2017-11-08T04:22:15.355Z,92.80
2017-11-08T04:24:41.715Z,92.80
2017-11-08T04:27:08.013Z,92.80
2017-11-08T04:29:34.411Z,92.70
2017-11-08T04:32:00.753Z,92.70
2017-11-08T04:34:27.090Z,92.70
2017-11-08T04:36:54.203Z,92.50
2017-11-08T04:39:20.550Z,92.50
2017-11-08T04:41:46.836Z,92.50
2017-11-08T04:44:13.159Z,92.30
2017-11-08T04:46:39.442Z,92.40
2017-11-08T04:49:05.746Z,92.30
2017-11-08T04:51:32.055Z,92.30
2017-11-08T04:53:58.800Z,92.40
2017-11-08T04:56:25.163Z,92.40
2017-11-08T04:58:51.475Z,92.40
2017-11-08T05:01:17.775Z,92.30
2017-11-08T05:03:44.101Z,92.40
2017-11-08T05:06:10.419Z,92.20
2017-11-08T05:08:36.741Z,92.10
2017-11-08T05:11:03.023Z,92.00
2017-11-08T05:13:29.426Z,91.90
2017-11-08T05:15:55.771Z,91.90
2017-11-08T05:18:22.095Z,91.90
2017-11-08T05:20:48.566Z,91.70
2017-11-08T05:23:15.609Z,91.70
2017-11-08T05:25:43.401Z,91.40
2017-11-08T05:28:17.441Z,91.00
2017-11-08T05:30:43.772Z,91.00
2017-11-08T05:33:10.052Z,91.10
2017-11-08T05:35:37.092Z,90.40
2017-11-08T05:38:03.470Z,90.40
2017-11-08T05:40:29.761Z,90.50
2017-11-08T05:42:56.855Z,90.30
2017-11-08T05:45:24.035Z,90.10
2017-11-08T05:47:50.465Z,90.10
2017-11-08T05:50:16.817Z,90.20
2017-11-08T05:52:44.065Z,90.10
2017-11-08T05:55:10.671Z,90.20
2017-11-08T05:57:36.967Z,90.20
2017-11-08T06:00:03.327Z,90.00
2017-11-08T06:02:29.629Z,89.60
2017-11-08T06:04:56.054Z,89.90
2017-11-08T06:07:22.526Z,90.00
2017-11-08T06:09:56.007Z,90.10
2017-11-08T06:12:22.354Z,90.10
2017-11-08T06:14:55.637Z,90.30
2017-11-08T06:17:22.104Z,90.40
2017-11-08T06:19:48.446Z,90.80
2017-11-08T06:22:14.854Z,90.70
2017-11-08T06:24:41.237Z,90.70
2017-11-08T06:27:07.622Z,90.60
2017-11-08T06:29:34.153Z,90.60
2017-11-08T06:32:00.490Z,90.70
2017-11-08T06:34:26.881Z,90.80
2017-11-08T06:36:53.187Z,90.90
2017-11-08T06:39:20.219Z,91.00
2017-11-08T06:41:47.293Z,91.00
2017-11-08T06:44:13.919Z,91.00
2017-11-08T06:46:40.449Z,90.90
2017-11-08T06:49:06.840Z,91.00
2017-11-08T06:51:35.229Z,91.00
2017-11-08T06:54:01.602Z,91.00
2017-11-08T06:56:28.008Z,91.00
2017-11-08T06:58:55.178Z,91.00
2017-11-08T07:01:22.412Z,90.90
2017-11-08T07:03:48.719Z,90.90
2017-11-08T07:06:15.843Z,90.80
2017-11-08T07:08:43.049Z,91.10
2017-11-08T07:11:09.392Z,90.70
2017-11-08T07:13:36.448Z,90.70
2017-11-08T07:16:02.725Z,90.70
2017-11-08T07:18:29.065Z,90.70
2017-11-08T07:20:55.415Z,90.50
2017-11-08T07:23:21.727Z,90.50
2017-11-08T07:25:48.083Z,90.30
2017-11-08T07:28:15.125Z,90.40
2017-11-08T07:30:41.437Z,90.40
2017-11-08T07:33:07.716Z,90.00
2017-11-08T07:35:34.060Z,90.00
2017-11-08T07:38:00.333Z,90.00
2017-11-08T07:40:27.353Z,89.70
2017-11-08T07:42:53.679Z,89.70
2017-11-08T07:45:19.996Z,89.70
2017-11-08T07:47:46.271Z,89.40
2017-11-08T07:50:12.593Z,88.50
2017-11-08T07:52:45.963Z,88.40
2017-11-08T07:55:18.415Z,87.30
2017-11-08T07:57:44.771Z,87.10
2017-11-08T08:00:11.300Z,85.50
2017-11-08T08:02:37.594Z,85.40
2017-11-08T08:05:04.654Z,85.60
2017-11-08T08:07:35.888Z,85.40
2017-11-08T08:10:02.187Z,85.50
2017-11-08T08:12:28.483Z,83.40
2017-11-08T08:14:54.815Z,83.80
2017-11-08T08:17:21.121Z,84.00
2017-11-08T08:19:47.409Z,82.80
2017-11-08T08:22:14.439Z,82.40
2017-11-08T08:24:40.739Z,82.20
2017-11-08T08:27:09.013Z,82.00
2017-11-08T08:29:35.565Z,80.80
2017-11-08T08:32:01.895Z,80.60
2017-11-08T08:34:28.190Z,81.00
2017-11-08T08:36:54.480Z,79.70
2017-11-08T08:39:20.717Z,79.40
2017-11-08T08:41:47.755Z,79.70
2017-11-08T08:44:14.024Z,79.70
2017-11-08T08:46:40.291Z,78.30
2017-11-08T08:49:06.519Z,78.60
2017-11-08T08:51:32.800Z,79.10
2017-11-08T08:53:59.122Z,78.40
2017-11-08T08:56:26.053Z,78.20
2017-11-08T08:58:53.061Z,77.60
2017-11-08T09:01:19.373Z,77.60
2017-11-08T09:03:45.673Z,77.80
2017-11-08T09:06:11.991Z,78.30
2017-11-08T09:08:38.977Z,77.60
2017-11-08T09:11:05.245Z,77.50
2017-11-08T09:13:31.633Z,77.50
2017-11-08T09:15:57.967Z,78.30
2017-11-08T09:18:24.275Z,77.40
2017-11-08T09:20:50.591Z,77.90
2017-11-08T09:23:19.699Z,77.00
2017-11-08T09:25:46.014Z,77.00
2017-11-08T09:28:17.088Z,77.30
2017-11-08T09:30:43.428Z,77.30
2017-11-08T09:33:09.735Z,77.20
2017-11-08T09:35:38.839Z,76.70
2017-11-08T09:38:09.269Z,76.90
2017-11-08T09:40:41.724Z,76.70
2017-11-08T09:43:12.350Z,77.00
2017-11-08T09:45:39.908Z,77.10
2017-11-08T09:48:08.943Z,76.80
2017-11-08T09:50:35.188Z,76.80
2017-11-08T09:53:03.004Z,77.10
2017-11-08T09:55:29.270Z,76.90
2017-11-08T09:57:55.521Z,77.30
2017-11-08T10:00:21.763Z,76.80
2017-11-08T10:02:48.775Z,76.30
2017-11-08T10:05:15.099Z,76.20
2017-11-08T10:07:41.347Z,75.60
2017-11-08T10:10:07.785Z,75.70
2017-11-08T10:12:34.050Z,75.30
2017-11-08T10:15:00.346Z,74.40
2017-11-08T10:17:26.699Z,74.10
2017-11-08T10:19:57.706Z,74.70
2017-11-08T10:22:26.680Z,74.40
2017-11-08T10:24:52.943Z,74.30
2017-11-08T10:27:20.008Z,73.60
2017-11-08T10:29:47.016Z,72.70
2017-11-08T10:32:13.315Z,72.70
2017-11-08T10:34:39.727Z,72.00
2017-11-08T10:37:06.158Z,72.10
2017-11-08T10:39:32.503Z,70.40
2017-11-08T10:41:58.877Z,69.90
2017-11-08T10:44:26.063Z,72.70
2017-11-08T10:46:52.412Z,72.70
2017-11-08T10:49:20.552Z,72.90
2017-11-08T10:51:47.004Z,72.30
2017-11-08T10:54:13.275Z,70.50
2017-11-08T10:56:40.338Z,69.30
2017-11-08T10:59:12.933Z,69.30
2017-11-08T11:01:39.311Z,68.30
2017-11-08T11:04:06.456Z,68.30
2017-11-08T11:06:33.417Z,68.30
2017-11-08T11:08:59.756Z,69.50
2017-11-08T11:11:26.031Z,72.20
2017-11-08T11:13:58.363Z,73.00
2017-11-08T11:16:24.619Z,73.00
2017-11-08T11:18:50.909Z,73.00
2017-11-08T11:21:19.029Z,73.50
2017-11-08T11:23:47.571Z,73.40
2017-11-08T11:26:16.332Z,73.40
2017-11-08T11:28:42.749Z,73.40
2017-11-08T11:31:10.588Z,74.40
2017-11-08T11:33:37.663Z,74.40
2017-11-08T11:36:03.896Z,74.40
2017-11-08T11:38:32.175Z,74.70
2017-11-08T11:40:58.648Z,74.50
2017-11-08T11:43:25.656Z,74.60
2017-11-08T11:45:51.959Z,74.60
2017-11-08T11:48:18.280Z,74.70
2017-11-08T11:50:44.616Z,74.40
2017-11-08T11:53:10.976Z,74.70
2017-11-08T11:55:37.271Z,74.80
2017-11-08T11:58:03.592Z,74.60
2017-11-08T12:00:29.872Z,74.60
2017-11-08T12:02:56.181Z,74.00
2017-11-08T12:05:22.693Z,74.50
2017-11-08T12:07:49.076Z,74.50
2017-11-08T12:10:16.684Z,74.50
2017-11-08T12:12:43.235Z,74.60
2017-11-08T12:15:09.611Z,75.00
2017-11-08T12:17:36.024Z,75.10
2017-11-08T12:20:03.727Z,75.10
2017-11-08T12:22:30.237Z,75.10
2017-11-08T12:24:56.544Z,75.10
2017-11-08T12:27:29.287Z,75.20
2017-11-08T12:29:55.535Z,75.70
2017-11-08T12:32:21.860Z,75.50
2017-11-08T12:34:54.473Z,75.40
2017-11-08T12:37:20.983Z,75.60
2017-11-08T12:39:53.522Z,75.70
2017-11-08T12:42:20.220Z,75.40
2017-11-08T12:44:52.704Z,75.30
2017-11-08T12:47:19.231Z,75.70
2017-11-08T12:49:48.159Z,75.70
2017-11-08T12:52:14.847Z,75.80
2017-11-08T12:54:41.923Z,76.20
2017-11-08T12:57:09.036Z,76.10
2017-11-08T12:59:35.343Z,76.00
2017-11-08T13:02:01.827Z,75.90
2017-11-08T13:04:28.119Z,75.80
2017-11-08T13:06:55.608Z,76.00
2017-11-08T13:09:22.743Z,76.10
2017-11-08T13:11:50.137Z,75.70
2017-11-08T13:14:18.280Z,76.00
2017-11-08T13:16:44.641Z,75.70
2017-11-08T13:19:11.851Z,75.60
2017-11-08T13:21:38.202Z,75.70
2017-11-08T13:24:04.508Z,76.20
2017-11-08T13:26:30.895Z,76.20
2017-11-08T13:28:57.407Z,76.50
2017-11-08T13:31:23.813Z,76.80
2017-11-08T13:33:51.916Z,76.90
2017-11-08T13:36:19.291Z,77.70
2017-11-08T13:38:45.724Z,77.70
2017-11-08T13:41:12.822Z,78.00
2017-11-08T13:43:39.932Z,77.70
2017-11-08T13:46:07.053Z,78.00
2017-11-08T13:48:34.140Z,78.20
2017-11-08T13:51:00.683Z,78.10
2017-11-08T13:53:27.022Z,78.20
2017-11-08T13:55:53.319Z,78.20
2017-11-08T13:58:20.580Z,78.20
2017-11-08T14:00:47.691Z,78.20
2017-11-08T14:03:13.962Z,78.30
2017-11-08T14:05:40.733Z,78.80
2017-11-08T14:08:07.103Z,78.80
2017-11-08T14:10:34.170Z,78.10
2017-11-08T14:13:03.862Z,78.50
2017-11-08T14:15:31.380Z,78.50
2017-11-08T14:18:00.568Z,78.90
2017-11-08T14:20:26.855Z,79.50
2017-11-08T14:22:53.445Z,79.80
2017-11-08T14:25:21.296Z,79.90
2017-11-08T14:27:47.750Z,79.90
2017-11-08T14:30:15.057Z,79.90
2017-11-08T14:32:41.715Z,80.10
2017-11-08T14:35:08.108Z,79.70
2017-11-08T14:37:35.116Z,80.50
2017-11-08T14:40:01.378Z,80.50
2017-11-08T14:42:28.528Z,80.20
2017-11-08T14:44:55.547Z,80.40
2017-11-08T14:47:21.827Z,80.30
2017-11-08T14:49:48.996Z,81.10
2017-11-08T14:52:15.401Z,81.10
2017-11-08T14:54:43.689Z,80.90
2017-11-08T14:57:10.711Z,81.30
2017-11-08T14:59:37.735Z,81.20
2017-11-08T15:02:05.614Z,81.20
2017-11-08T15:04:32.944Z,81.50
2017-11-08T15:06:59.191Z,81.40
2017-11-08T15:09:25.428Z,81.40
2017-11-08T15:11:51.675Z,82.10
2017-11-08T15:14:29.420Z,81.30
2017-11-08T15:16:56.607Z,81.50
2017-11-08T15:19:46.543Z,81.50
2017-11-08T15:46:30.842Z,81.90
2017-11-08T15:49:02.193Z,81.90
2017-11-08T15:51:29.468Z,82.00
2017-11-08T15:53:55.817Z,82.10
2017-11-08T15:56:29.904Z,82.30
2017-11-08T15:58:59.336Z,82.70
2017-11-08T16:01:28.767Z,82.60
2017-11-08T16:03:57.348Z,82.40
2017-11-08T16:06:26.924Z,82.60
2017-11-08T16:09:01.508Z,82.20
2017-11-08T16:11:28.114Z,83.10
2017-11-08T16:13:57.410Z,82.30
2017-11-08T16:16:24.945Z,82.20
2017-11-08T16:18:52.468Z,82.40
2017-11-08T16:21:18.737Z,82.40
2017-11-08T16:23:46.552Z,82.20
2017-11-08T16:26:13.718Z,82.20
2017-11-08T16:31:14.591Z,82.00
2017-11-08T16:33:41.085Z,82.00
2017-11-08T16:36:09.046Z,82.10
2017-11-08T16:38:38.382Z,82.40
2017-11-08T16:41:04.843Z,82.20
2017-11-08T16:43:32.128Z,82.30
2017-11-08T16:46:13.929Z,82.30
2017-11-08T16:48:41.214Z,82.30
2017-11-08T16:51:09.275Z,82.10
2017-11-08T16:53:39.026Z,82.10
2017-11-08T16:56:06.991Z,83.10
2017-11-08T16:58:34.542Z,82.50
2017-11-08T17:01:01.604Z,82.30
2017-11-08T17:03:28.457Z,82.30
2017-11-08T17:05:55.095Z,82.50
2017-11-08T17:08:24.274Z,82.40
2017-11-08T17:10:50.947Z,82.40
2017-11-08T17:13:25.728Z,82.30
2017-11-08T17:15:53.035Z,82.40
2017-11-08T17:18:38.920Z,82.20
2017-11-08T17:21:05.428Z,82.70
2017-11-08T17:23:32.459Z,82.20
2017-11-08T17:25:59.023Z,82.10
2017-11-08T17:28:25.844Z,82.20
2017-11-08T17:30:53.299Z,82.50
2017-11-08T17:33:20.292Z,82.70
2017-11-08T17:35:46.521Z,82.50
2017-11-08T17:38:13.337Z,82.50
2017-11-08T17:43:14.158Z,83.40
2017-11-08T17:45:42.288Z,82.80
2017-11-08T17:48:09.397Z,82.80
2017-11-08T17:50:35.981Z,82.50
2017-11-08T17:53:05.394Z,82.10
2017-11-08T17:55:35.355Z,82.70
2017-11-08T17:58:01.591Z,82.70
2017-11-08T18:00:28.784Z,82.60
2017-11-08T18:02:56.520Z,82.30
2017-11-08T18:05:22.923Z,81.80
2017-11-08T18:07:49.805Z,82.40
2017-11-08T18:10:21.555Z,82.10
2017-11-08T18:12:54.957Z,82.30
2017-11-08T18:15:22.322Z,82.30
2017-11-08T18:17:49.943Z,82.70
2017-11-08T18:20:17.528Z,82.90
2017-11-08T18:22:46.098Z,82.50
2017-11-08T18:25:16.131Z,82.70
2017-11-08T18:27:43.214Z,82.70
2017-11-08T18:30:10.094Z,82.70
2017-11-08T18:32:37.319Z,82.70
2017-11-08T18:35:05.263Z,82.60
2017-11-08T18:37:37.193Z,82.80
2017-11-08T18:40:03.866Z,83.30
2017-11-08T18:42:34.288Z,82.90
2017-11-08T18:45:02.526Z,83.00
2017-11-08T18:47:29.893Z,83.10
2017-11-08T18:49:57.142Z,82.60
2017-11-08T18:52:24.462Z,82.80
2017-11-08T18:54:51.644Z,83.00
2017-11-08T18:57:23.927Z,82.80
2017-11-08T18:59:50.620Z,82.60
2017-11-08T19:02:18.443Z,82.70
2017-11-08T19:04:45.709Z,82.90
2017-11-08T19:07:12.867Z,82.90
2017-11-08T19:09:41.830Z,83.30
2017-11-08T19:12:09.354Z,83.10
2017-11-08T19:14:39.414Z,82.50
2017-11-08T19:17:06.406Z,82.60
2017-11-08T19:19:33.794Z,83.30
2017-11-08T19:22:02.917Z,83.10
2017-11-08T19:24:33.353Z,83.30
2017-11-08T19:27:03.844Z,82.80
2017-11-08T19:29:30.686Z,83.10
2017-11-08T19:31:57.128Z,82.80
2017-11-08T19:34:23.496Z,83.10
2017-11-08T19:40:01.220Z,83.50
2017-11-08T19:42:28.553Z,83.00
2017-11-08T19:44:55.589Z,82.80
2017-11-08T19:47:29.509Z,82.80
2017-11-08T19:49:56.232Z,83.00
2017-11-08T19:52:22.464Z,82.60
2017-11-08T19:54:50.417Z,83.40
2017-11-08T19:57:19.537Z,83.30
2017-11-08T19:59:46.613Z,83.10
2017-11-08T20:02:13.595Z,83.20
2017-11-08T20:04:40.459Z,83.10
2017-11-08T20:07:06.999Z,83.00
2017-11-08T20:09:33.606Z,83.10
2017-11-08T20:12:00.030Z,83.10
2017-11-08T20:14:26.270Z,83.30
2017-11-08T20:16:53.395Z,82.90
2017-11-08T20:19:20.379Z,82.90
2017-11-08T20:21:46.632Z,82.80
2017-11-08T20:24:13.657Z,82.70
2017-11-08T20:26:39.901Z,83.20
2017-11-08T20:29:06.343Z,83.10
2017-11-08T20:31:33.463Z,83.30
2017-11-08T20:33:59.680Z,83.00
2017-11-08T20:36:25.943Z,82.90
2017-11-08T20:38:52.314Z,83.00
2017-11-08T20:41:18.631Z,83.00
2017-11-08T20:43:45.620Z,83.30
2017-11-08T20:46:11.864Z,83.30
2017-11-08T20:48:38.085Z,82.90
2017-11-08T20:51:04.305Z,82.90
2017-11-08T20:53:31.584Z,83.20
2017-11-08T20:55:58.722Z,83.00
2017-11-08T20:58:25.142Z,82.90
2017-11-08T21:00:51.415Z,83.20
2017-11-08T21:03:19.227Z,83.60
2017-11-08T21:05:45.508Z,83.50
2017-11-08T21:08:12.590Z,83.40
2017-11-08T21:10:38.896Z,83.40
2017-11-08T21:13:05.183Z,83.50
2017-11-08T21:15:31.460Z,83.20
2017-11-08T21:17:59.428Z,83.10
2017-11-08T21:20:25.911Z,83.00
2017-11-08T21:22:52.369Z,83.30
2017-11-08T21:25:19.370Z,83.60
2017-11-08T21:27:47.464Z,83.60
2017-11-08T21:30:14.669Z,83.60
2017-11-08T21:32:40.934Z,83.70
2017-11-08T21:35:07.209Z,83.80
2017-11-08T21:37:34.261Z,83.70
2017-11-08T21:40:01.448Z,83.70
2017-11-08T21:42:27.700Z,83.60
2017-11-08T21:44:58.000Z,84.00
2017-11-08T21:47:24.257Z,83.40
2017-11-08T21:49:50.602Z,83.90
2017-11-08T21:52:16.935Z,83.70
2017-11-08T21:54:44.008Z,83.20
2017-11-08T21:57:10.376Z,83.20
2017-11-08T21:59:37.011Z,83.40
2017-11-08T22:02:03.284Z,83.10
2017-11-08T22:04:30.559Z,83.00
2017-11-08T22:06:56.836Z,82.80
2017-11-08T22:09:23.297Z,83.30
2017-11-08T22:11:50.510Z,83.50
2017-11-08T22:14:16.785Z,83.40
2017-11-08T22:16:43.048Z,83.20
2017-11-08T22:19:09.307Z,82.90
2017-11-08T22:21:35.604Z,83.00
2017-11-08T22:24:01.888Z,84.10
2017-11-08T22:26:29.206Z,83.00
2017-11-08T22:29:00.327Z,83.20
2017-11-08T22:31:26.543Z,83.70
2017-11-08T22:33:54.256Z,83.40
2017-11-08T22:36:20.603Z,83.40
2017-11-08T22:38:47.718Z,83.60
2017-11-08T22:41:14.053Z,83.50
2017-11-08T22:43:40.378Z,83.40
2017-11-08T22:46:06.741Z,83.70
2017-11-08T22:48:34.578Z,83.60
2017-11-08T22:51:00.815Z,83.60
2017-11-08T22:53:27.085Z,84.10
2017-11-08T22:55:53.445Z,83.30
2017-11-08T22:58:20.025Z,83.50
2017-11-08T23:00:46.544Z,83.20
2017-11-08T23:03:12.993Z,83.40
2017-11-08T23:05:39.307Z,83.90
2017-11-08T23:08:06.308Z,83.80
2017-11-08T23:10:32.689Z,84.50
2017-11-08T23:12:58.936Z,83.60
2017-11-08T23:15:26.012Z,83.80
2017-11-08T23:17:52.269Z,83.80
2017-11-08T23:20:18.607Z,83.70
2017-11-08T23:22:44.855Z,83.80
2017-11-08T23:25:11.881Z,83.80
2017-11-08T23:27:38.138Z,83.80
2017-11-08T23:30:04.746Z,83.70
2017-11-08T23:32:31.179Z,84.30
2017-11-08T23:34:57.602Z,83.70
2017-11-08T23:37:23.904Z,83.40
2017-11-08T23:39:50.295Z,83.90
2017-11-08T23:42:17.438Z,84.00
2017-11-08T23:44:43.852Z,84.00
2017-11-08T23:47:10.155Z,83.90
2017-11-08T23:49:36.463Z,83.80
2017-11-08T23:52:03.524Z,83.50
2017-11-08T23:54:29.905Z,83.80
2017-11-08T23:56:56.160Z,84.20
2017-11-08T23:59:27.969Z,83.60
